createdAt,value
2018-05-21T00:00:04.034Z,14.52
2018-05-21T00:01:10.260Z,14.62
2018-05-21T00:02:16.775Z,14.67
2018-05-21T00:03:23.098Z,14.55
2018-05-21T00:04:29.403Z,14.34
2018-05-21T00:05:36.397Z,14.31
2018-05-21T00:06:42.553Z,14.20
2018-05-21T00:07:50.703Z,14.17
2018-05-21T00:08:57.775Z,14.41
2018-05-21T00:10:04.581Z,14.44
2018-05-21T00:11:13.505Z,14.15
2018-05-21T00:12:19.726Z,14.01
2018-05-21T00:13:27.779Z,13.87
2018-05-21T00:14:35.878Z,13.71
2018-05-21T00:15:44.828Z,13.73
2018-05-21T00:16:52.909Z,13.94
2018-05-21T00:18:00.434Z,14.08
2018-05-21T00:19:07.393Z,14.27
2018-05-21T00:20:14.018Z,14.31
2018-05-21T00:21:20.590Z,14.13
2018-05-21T00:22:26.867Z,14.07
2018-05-21T00:23:33.089Z,13.92
2018-05-21T00:24:39.396Z,14.00
2018-05-21T00:25:45.706Z,14.07
2018-05-21T00:26:57.002Z,14.00
2018-05-21T00:28:03.226Z,13.96
2018-05-21T00:29:10.179Z,13.94
2018-05-21T00:30:31.293Z,13.82
2018-05-21T00:31:37.473Z,13.59
2018-05-21T00:32:43.744Z,13.60
2018-05-21T00:33:50.071Z,13.68
2018-05-21T00:34:56.381Z,13.64
2018-05-21T00:36:02.633Z,13.80
2018-05-21T00:37:08.552Z,13.77
2018-05-21T00:38:17.493Z,13.71
2018-05-21T00:39:23.980Z,13.70
2018-05-21T00:40:30.274Z,13.72
2018-05-21T00:41:36.601Z,13.81
2018-05-21T00:42:42.906Z,13.94
2018-05-21T00:43:50.631Z,14.01
2018-05-21T00:44:56.843Z,13.79
2018-05-21T00:46:03.147Z,13.72
2018-05-21T00:47:09.369Z,13.72
2018-05-21T00:48:15.665Z,13.75
2018-05-21T00:49:21.876Z,13.75
2018-05-21T00:50:28.120Z,13.82
2018-05-21T00:51:40.296Z,13.83
2018-05-21T00:52:46.472Z,13.81
2018-05-21T00:53:52.786Z,13.88
2018-05-21T00:55:10.289Z,13.51
2018-05-21T00:56:16.237Z,13.64
2018-05-21T00:57:22.477Z,13.73
2018-05-21T00:58:28.774Z,13.69
2018-05-21T00:59:35.067Z,13.61
2018-05-21T01:00:41.104Z,13.60
2018-05-21T01:01:46.262Z,13.54
2018-05-21T01:02:52.594Z,13.51
2018-05-21T01:03:58.896Z,13.69
2018-05-21T01:05:05.125Z,13.72
2018-05-21T01:06:11.406Z,13.61
2018-05-21T01:07:17.642Z,13.47
2018-05-21T01:08:23.928Z,13.31
2018-05-21T01:09:30.287Z,13.36
2018-05-21T01:10:36.599Z,13.33
2018-05-21T01:11:42.875Z,13.14
2018-05-21T01:12:49.177Z,12.86
2018-05-21T01:13:55.373Z,12.86
2018-05-21T01:15:12.109Z,13.03
2018-05-21T01:16:18.042Z,12.71
2018-05-21T01:17:24.351Z,12.78
2018-05-21T01:18:30.406Z,12.85
2018-05-21T01:19:36.302Z,12.87
2018-05-21T01:20:42.606Z,12.95
2018-05-21T01:21:48.877Z,12.67
2018-05-21T01:22:55.103Z,12.62
2018-05-21T01:24:01.445Z,12.50
2018-05-21T01:25:07.740Z,12.49
2018-05-21T01:26:14.130Z,12.52
2018-05-21T01:27:20.425Z,12.84
2018-05-21T01:28:26.637Z,12.62
2018-05-21T01:29:32.877Z,12.78
2018-05-21T01:30:39.213Z,12.78
2018-05-21T01:31:45.478Z,12.61
2018-05-21T01:32:51.719Z,12.75
2018-05-21T01:33:58.027Z,12.92
2018-05-21T01:35:03.942Z,12.99
2018-05-21T01:36:11.135Z,12.98
2018-05-21T01:37:17.198Z,12.95
2018-05-21T01:38:23.451Z,12.98
2018-05-21T01:39:29.689Z,13.01
2018-05-21T01:40:35.981Z,12.73
2018-05-21T01:41:42.496Z,12.77
2018-05-21T01:42:48.828Z,12.94
2018-05-21T01:43:55.125Z,12.87
2018-05-21T01:45:01.433Z,12.77
2018-05-21T01:46:08.579Z,12.84
2018-05-21T01:47:14.766Z,12.59
2018-05-21T01:48:20.956Z,12.62
2018-05-21T01:49:27.194Z,12.74
2018-05-21T01:50:33.554Z,12.72
2018-05-21T01:51:39.814Z,12.81
2018-05-21T01:52:46.109Z,12.89
2018-05-21T01:53:52.357Z,12.88
2018-05-21T01:55:04.898Z,12.85
2018-05-21T01:56:11.691Z,12.63
2018-05-21T01:57:17.908Z,12.58
2018-05-21T01:58:24.124Z,12.67
2018-05-21T01:59:30.114Z,12.55
2018-05-21T02:00:36.424Z,12.52
2018-05-21T02:01:43.663Z,12.48
2018-05-21T02:02:49.599Z,12.47
2018-05-21T02:03:55.930Z,12.54
2018-05-21T02:05:02.207Z,12.37
2018-05-21T02:06:08.542Z,12.33
2018-05-21T02:07:14.819Z,12.45
2018-05-21T02:08:21.387Z,12.45
2018-05-21T02:09:27.896Z,12.52
2018-05-21T02:10:34.196Z,12.54
2018-05-21T02:11:40.491Z,12.47
2018-05-21T02:12:47.673Z,12.32
2018-05-21T02:13:53.561Z,12.25
2018-05-21T02:14:59.589Z,12.19
2018-05-21T02:16:05.966Z,12.23
2018-05-21T02:17:13.026Z,12.03
2018-05-21T02:18:19.808Z,12.12
2018-05-21T02:19:26.118Z,12.28
2018-05-21T02:20:32.402Z,12.25
2018-05-21T02:21:38.350Z,12.28
2018-05-21T02:22:44.612Z,12.33
2018-05-21T02:23:50.981Z,12.55
2018-05-21T02:24:57.248Z,12.60
2018-05-21T02:26:03.460Z,12.69
2018-05-21T02:27:09.804Z,12.46
2018-05-21T02:28:16.094Z,12.46
2018-05-21T02:29:22.321Z,12.34
2018-05-21T02:30:28.625Z,12.41
2018-05-21T02:31:34.973Z,12.39
2018-05-21T02:32:41.261Z,12.43
2018-05-21T02:33:47.667Z,12.52
2018-05-21T02:34:53.997Z,12.35
2018-05-21T02:36:00.268Z,12.50
2018-05-21T02:37:14.131Z,12.51
2018-05-21T02:38:21.065Z,12.26
2018-05-21T02:39:27.308Z,12.17
2018-05-21T02:40:33.618Z,12.19
2018-05-21T02:41:39.936Z,12.36
2018-05-21T02:42:46.247Z,12.45
2018-05-21T02:43:52.540Z,12.40
2018-05-21T02:44:58.744Z,12.44
2018-05-21T02:46:04.720Z,12.50
2018-05-21T02:47:10.964Z,12.44
2018-05-21T02:48:17.420Z,12.59
2018-05-21T02:49:24.858Z,12.49
2018-05-21T02:50:31.129Z,12.53
2018-05-21T02:51:37.369Z,12.59
2018-05-21T02:52:43.829Z,12.56
2018-05-21T02:53:50.041Z,12.63
2018-05-21T02:54:57.206Z,12.68
2018-05-21T02:56:03.744Z,12.49
2018-05-21T02:57:10.720Z,12.62
2018-05-21T02:58:16.944Z,12.72
2018-05-21T02:59:23.284Z,12.67
2018-05-21T03:00:29.263Z,12.45
2018-05-21T03:01:35.713Z,12.51
2018-05-21T03:02:42.857Z,12.48
2018-05-21T03:03:49.258Z,12.37
2018-05-21T03:04:55.558Z,12.41
2018-05-21T03:06:02.082Z,12.32
2018-05-21T03:07:08.949Z,12.46
2018-05-21T03:08:15.376Z,12.29
2018-05-21T03:09:22.342Z,12.36
2018-05-21T03:10:28.813Z,12.42
2018-05-21T03:11:35.086Z,12.23
2018-05-21T03:12:42.357Z,12.36
2018-05-21T03:13:49.174Z,12.42
2018-05-21T03:14:55.408Z,12.47
2018-05-21T03:16:01.652Z,12.50
2018-05-21T03:17:07.943Z,12.44
2018-05-21T03:18:14.230Z,12.35
2018-05-21T03:19:21.306Z,12.21
2018-05-21T03:20:28.507Z,12.34
2018-05-21T03:21:34.803Z,12.39
2018-05-21T03:22:41.057Z,12.41
2018-05-21T03:23:47.424Z,12.32
2018-05-21T03:24:54.185Z,12.39
2018-05-21T03:26:00.465Z,12.40
2018-05-21T03:27:06.707Z,12.44
2018-05-21T03:28:13.014Z,12.40
2018-05-21T03:29:20.218Z,12.44
2018-05-21T03:30:26.424Z,12.50
2018-05-21T03:31:32.641Z,12.54
2018-05-21T03:32:38.889Z,12.46
2018-05-21T03:33:45.492Z,12.41
2018-05-21T03:34:51.901Z,12.46
2018-05-21T03:35:58.006Z,12.47
2018-05-21T03:37:04.327Z,12.46
2018-05-21T03:38:10.616Z,12.32
2018-05-21T03:39:17.976Z,12.15
2018-05-21T03:40:25.036Z,12.23
2018-05-21T03:41:30.952Z,12.33
2018-05-21T03:42:37.224Z,12.39
2018-05-21T03:43:44.040Z,12.41
2018-05-21T03:44:50.319Z,12.46
2018-05-21T03:45:56.542Z,12.37
2018-05-21T03:47:02.726Z,12.28
2018-05-21T03:48:09.016Z,12.37
2018-05-21T03:49:15.257Z,12.31
2018-05-21T03:50:21.466Z,12.16
2018-05-21T03:51:28.724Z,12.09
2018-05-21T03:52:35.066Z,12.08
2018-05-21T03:53:41.518Z,12.00
2018-05-21T03:54:47.753Z,12.13
2018-05-21T03:55:54.930Z,12.07
2018-05-21T03:57:01.560Z,12.15
2018-05-21T03:58:19.181Z,12.29
2018-05-21T03:59:36.149Z,12.41
2018-05-21T04:02:33.565Z,12.38
2018-05-21T04:03:50.886Z,12.48
2018-05-21T04:04:57.171Z,12.59
2018-05-21T04:06:03.457Z,12.61
2018-05-21T04:07:09.781Z,12.38
2018-05-21T04:08:16.114Z,12.46
2018-05-21T04:09:22.416Z,12.36
2018-05-21T04:10:28.743Z,12.51
2018-05-21T04:11:35.470Z,12.54
2018-05-21T04:12:41.700Z,12.57
2018-05-21T04:13:47.650Z,12.67
2018-05-21T04:14:53.991Z,12.74
2018-05-21T04:16:00.245Z,12.79
2018-05-21T04:17:05.853Z,12.78
2018-05-21T04:18:12.633Z,12.61
2018-05-21T04:19:18.908Z,12.69
2018-05-21T04:20:25.204Z,12.72
2018-05-21T04:21:31.773Z,12.63
2018-05-21T04:22:38.066Z,12.69
2018-05-21T04:23:44.483Z,12.75
2018-05-21T04:24:50.787Z,12.79
2018-05-21T04:25:57.112Z,12.69
2018-05-21T04:27:04.280Z,12.76
2018-05-21T04:28:11.280Z,12.80
2018-05-21T04:29:17.544Z,12.85
2018-05-21T04:30:23.863Z,12.84
2018-05-21T04:31:30.157Z,12.87
2018-05-21T04:32:36.421Z,12.90
2018-05-21T04:33:42.404Z,12.91
2018-05-21T04:34:49.223Z,12.93
2018-05-21T04:35:55.548Z,12.94
2018-05-21T04:37:01.868Z,12.98
2018-05-21T04:38:08.342Z,12.98
2018-05-21T04:39:14.662Z,12.99
2018-05-21T04:40:21.005Z,13.03
2018-05-21T04:41:27.304Z,13.01
2018-05-21T04:42:33.859Z,13.05
2018-05-21T04:43:40.071Z,13.08
2018-05-21T04:44:46.349Z,13.12
2018-05-21T04:45:52.737Z,13.08
2018-05-21T04:46:59.021Z,13.14
2018-05-21T04:48:05.464Z,13.21
2018-05-21T04:49:11.802Z,13.23
2018-05-21T04:50:18.245Z,13.19
2018-05-21T04:51:24.624Z,13.22
2018-05-21T04:52:30.913Z,13.24
2018-05-21T04:53:37.152Z,13.29
2018-05-21T04:54:43.474Z,13.37
2018-05-21T04:55:49.737Z,13.31
2018-05-21T04:56:56.049Z,13.34
2018-05-21T04:58:02.311Z,13.20
2018-05-21T04:59:08.573Z,13.32
2018-05-21T05:00:14.778Z,13.45
2018-05-21T05:01:21.033Z,13.54
2018-05-21T05:02:27.310Z,13.59
2018-05-21T05:03:34.577Z,13.63
2018-05-21T05:04:40.784Z,13.65
2018-05-21T05:05:47.106Z,13.68
2018-05-21T05:06:54.060Z,13.72
2018-05-21T05:08:06.030Z,13.52
2018-05-21T05:09:13.156Z,13.54
2018-05-21T05:10:20.254Z,13.44
2018-05-21T05:11:28.192Z,13.59
2018-05-21T05:12:35.479Z,13.57
2018-05-21T05:13:42.451Z,13.73
2018-05-21T05:14:49.796Z,13.82
2018-05-21T05:15:56.682Z,13.84
2018-05-21T05:17:04.906Z,13.91
2018-05-21T05:18:12.264Z,13.90
2018-05-21T05:19:19.441Z,13.94
2018-05-21T05:20:26.798Z,14.02
2018-05-21T05:21:34.623Z,14.11
2018-05-21T05:22:41.859Z,14.07
2018-05-21T05:23:49.129Z,14.20
2018-05-21T05:24:59.901Z,14.23
2018-05-21T05:26:07.241Z,14.27
2018-05-21T05:27:14.306Z,14.28
2018-05-21T05:28:20.885Z,14.35
2018-05-21T05:29:28.037Z,14.39
2018-05-21T05:30:36.070Z,14.38
2018-05-21T05:31:44.522Z,14.48
2018-05-21T05:32:51.577Z,14.59
2018-05-21T05:33:59.823Z,14.66
2018-05-21T05:35:12.995Z,14.67
2018-05-21T05:36:19.912Z,14.74
2018-05-21T05:37:27.562Z,14.77
2018-05-21T05:38:34.379Z,14.83
2018-05-21T05:39:42.152Z,14.88
2018-05-21T05:40:49.373Z,14.92
2018-05-21T05:41:55.946Z,14.81
2018-05-21T05:43:02.688Z,14.84
2018-05-21T05:44:10.440Z,14.88
2018-05-21T05:45:17.366Z,14.89
2018-05-21T05:46:24.897Z,14.92
2018-05-21T05:47:31.961Z,14.95
2018-05-21T05:48:38.576Z,15.02
2018-05-21T05:49:45.309Z,15.07
2018-05-21T05:50:52.557Z,15.18
2018-05-21T05:52:00.087Z,15.25
2018-05-21T05:53:07.480Z,15.31
2018-05-21T05:54:14.260Z,15.26
2018-05-21T05:55:22.234Z,15.26
2018-05-21T05:56:29.828Z,15.29
2018-05-21T05:57:36.414Z,15.35
2018-05-21T05:58:43.979Z,15.41
2018-05-21T05:59:51.042Z,15.47
2018-05-21T06:00:57.911Z,15.51
2018-05-21T06:02:04.630Z,15.55
2018-05-21T06:03:10.764Z,15.58
2018-05-21T06:04:17.559Z,15.61
2018-05-21T06:05:24.281Z,15.61
2018-05-21T06:06:31.957Z,15.63
2018-05-21T06:07:41.522Z,15.68
2018-05-21T06:08:48.640Z,15.63
2018-05-21T06:09:54.875Z,15.68
2018-05-21T06:11:02.154Z,15.68
2018-05-21T06:12:09.753Z,15.74
2018-05-21T06:13:17.065Z,15.65
2018-05-21T06:14:24.103Z,15.57
2018-05-21T06:15:30.405Z,15.72
2018-05-21T06:16:36.666Z,15.79
2018-05-21T06:17:42.973Z,15.81
2018-05-21T06:18:49.393Z,15.78
2018-05-21T06:19:55.623Z,15.84
2018-05-21T06:21:01.890Z,15.86
2018-05-21T06:22:08.088Z,15.95
2018-05-21T06:23:13.980Z,15.89
2018-05-21T06:24:20.672Z,15.92
2018-05-21T06:25:27.760Z,16.05
2018-05-21T06:26:36.362Z,16.10
2018-05-21T06:27:44.363Z,16.17
2018-05-21T06:28:50.709Z,15.88
2018-05-21T06:29:57.189Z,16.08
2018-05-21T06:31:03.884Z,16.22
2018-05-21T06:32:10.814Z,16.25
2018-05-21T06:33:17.380Z,16.28
2018-05-21T06:34:23.955Z,16.36
2018-05-21T06:35:30.672Z,16.32
2018-05-21T06:36:37.229Z,16.47
2018-05-21T06:37:43.574Z,16.55
2018-05-21T06:38:51.025Z,16.64
2018-05-21T06:39:57.843Z,16.68
2018-05-21T06:41:04.348Z,16.74
2018-05-21T06:42:11.169Z,16.81
2018-05-21T06:43:18.229Z,16.82
2018-05-21T06:44:25.211Z,16.89
2018-05-21T06:45:31.409Z,16.94
2018-05-21T06:46:37.982Z,16.95
2018-05-21T06:47:44.659Z,17.02
2018-05-21T06:48:50.997Z,17.06
2018-05-21T06:49:58.320Z,17.12
2018-05-21T06:51:05.916Z,17.13
2018-05-21T06:52:13.331Z,17.13
2018-05-21T06:53:20.308Z,17.20
2018-05-21T06:54:26.771Z,17.29
2018-05-21T06:55:33.363Z,17.32
2018-05-21T06:56:40.095Z,17.34
2018-05-21T06:57:46.529Z,17.35
2018-05-21T06:58:54.140Z,17.31
2018-05-21T07:00:00.486Z,17.35
2018-05-21T07:01:07.587Z,17.43
2018-05-21T07:02:13.925Z,17.41
2018-05-21T07:03:20.983Z,17.43
2018-05-21T07:04:27.281Z,17.50
2018-05-21T07:05:33.604Z,17.53
2018-05-21T07:06:40.156Z,17.58
2018-05-21T07:07:46.454Z,17.62
2018-05-21T07:08:52.811Z,17.68
2018-05-21T07:09:59.060Z,17.69
2018-05-21T07:11:11.473Z,17.74
2018-05-21T07:12:17.683Z,17.82
2018-05-21T07:13:24.981Z,17.85
2018-05-21T07:14:31.808Z,17.94
2018-05-21T07:15:38.159Z,17.99
2018-05-21T07:16:44.415Z,17.97
2018-05-21T07:17:50.660Z,17.92
2018-05-21T07:18:56.932Z,17.87
2018-05-21T07:20:03.194Z,18.07
2018-05-21T07:21:10.577Z,18.17
2018-05-21T07:22:17.008Z,18.21
2018-05-21T07:23:23.020Z,18.15
2018-05-21T07:24:29.399Z,18.16
2018-05-21T07:25:35.966Z,18.16
2018-05-21T07:26:42.244Z,18.24
2018-05-21T07:27:48.449Z,18.33
2018-05-21T07:28:55.791Z,18.41
2018-05-21T07:30:02.845Z,18.43
2018-05-21T07:31:09.136Z,18.43
2018-05-21T07:32:17.857Z,18.49
2018-05-21T07:33:28.958Z,18.61
2018-05-21T07:34:35.306Z,18.69
2018-05-21T07:35:41.576Z,18.75
2018-05-21T07:36:47.868Z,18.82
2018-05-21T07:37:54.096Z,18.90
2018-05-21T07:39:00.382Z,19.00
2018-05-21T07:40:06.842Z,19.05
2018-05-21T07:41:13.133Z,19.05
2018-05-21T07:42:19.451Z,19.06
2018-05-21T07:43:25.753Z,19.07
2018-05-21T07:44:33.114Z,18.94
2018-05-21T07:45:40.054Z,19.01
2018-05-21T07:46:46.309Z,19.03
2018-05-21T07:47:52.613Z,18.97
2018-05-21T07:48:58.877Z,18.95
2018-05-21T07:50:04.902Z,18.97
2018-05-21T07:51:11.143Z,19.01
2018-05-21T07:52:17.457Z,18.99
2018-05-21T07:53:26.688Z,18.96
2018-05-21T07:54:32.876Z,19.03
2018-05-21T07:55:39.237Z,18.98
2018-05-21T07:56:45.492Z,19.17
2018-05-21T07:57:51.765Z,19.33
2018-05-21T07:58:58.276Z,19.44
2018-05-21T08:00:04.300Z,19.54
2018-05-21T08:01:10.545Z,19.66
2018-05-21T08:02:17.366Z,19.70
2018-05-21T08:03:23.654Z,19.69
2018-05-21T08:04:29.951Z,19.69
2018-05-21T08:05:36.248Z,19.68
2018-05-21T08:06:42.627Z,19.62
2018-05-21T08:07:48.899Z,19.57
2018-05-21T08:08:55.102Z,19.55
2018-05-21T08:10:01.321Z,19.59
2018-05-21T08:11:07.627Z,19.54
2018-05-21T08:12:13.925Z,19.41
2018-05-21T08:13:20.363Z,19.51
2018-05-21T08:14:26.617Z,19.69
2018-05-21T08:15:32.805Z,19.85
2018-05-21T08:16:39.124Z,19.91
2018-05-21T08:17:45.397Z,19.96
2018-05-21T08:18:51.598Z,19.92
2018-05-21T08:19:57.816Z,19.92
2018-05-21T08:21:03.825Z,19.99
2018-05-21T08:22:10.132Z,20.00
2018-05-21T08:23:16.442Z,20.09
2018-05-21T08:24:23.379Z,20.16
2018-05-21T08:25:29.254Z,20.29
2018-05-21T08:26:35.513Z,20.28
2018-05-21T08:27:41.782Z,20.25
2018-05-21T08:28:48.098Z,20.14
2018-05-21T08:29:54.289Z,20.04
2018-05-21T08:31:00.305Z,20.07
2018-05-21T08:32:06.599Z,20.17
2018-05-21T08:33:12.932Z,20.25
2018-05-21T08:34:19.433Z,20.32
2018-05-21T08:35:27.202Z,20.38
2018-05-21T08:36:34.269Z,20.38
2018-05-21T08:37:41.148Z,20.36
2018-05-21T08:38:47.370Z,20.33
2018-05-21T08:39:53.675Z,20.23
2018-05-21T08:40:59.939Z,20.30
2018-05-21T08:42:06.205Z,20.35
2018-05-21T08:43:12.590Z,20.46
2018-05-21T08:44:18.970Z,20.62
2018-05-21T08:45:25.277Z,20.71
2018-05-21T08:46:31.577Z,20.69
2018-05-21T08:47:38.230Z,20.79
2018-05-21T08:48:45.785Z,20.85
2018-05-21T08:49:52.222Z,20.86
2018-05-21T08:50:59.512Z,20.86
2018-05-21T08:52:06.743Z,20.83
2018-05-21T08:53:13.537Z,20.85
2018-05-21T08:54:20.206Z,20.86
2018-05-21T08:55:26.098Z,20.81
2018-05-21T08:56:37.733Z,20.75
2018-05-21T08:57:49.312Z,20.85
2018-05-21T08:58:56.243Z,20.91
2018-05-21T09:00:02.586Z,20.95
2018-05-21T09:01:09.112Z,21.08
2018-05-21T09:02:15.309Z,21.04
2018-05-21T09:03:21.976Z,21.04
2018-05-21T09:04:28.220Z,21.15
2018-05-21T09:05:34.669Z,21.20
2018-05-21T09:06:42.510Z,21.18
2018-05-21T09:07:48.801Z,21.10
2018-05-21T09:08:55.077Z,21.09
2018-05-21T09:10:01.388Z,21.09
2018-05-21T09:11:08.552Z,21.15
2018-05-21T09:12:14.486Z,21.22
2018-05-21T09:13:20.836Z,21.24
2018-05-21T09:14:27.085Z,21.21
2018-05-21T09:15:33.385Z,21.24
2018-05-21T09:16:39.748Z,21.24
2018-05-21T09:17:46.325Z,21.29
2018-05-21T09:18:52.608Z,21.37
2018-05-21T09:19:58.915Z,21.46
2018-05-21T09:21:05.168Z,21.48
2018-05-21T09:22:13.683Z,21.59
2018-05-21T09:23:20.608Z,21.65
2018-05-21T09:24:26.819Z,21.72
2018-05-21T09:25:33.021Z,21.79
2018-05-21T09:26:39.296Z,21.78
2018-05-21T09:27:45.540Z,21.73
2018-05-21T09:28:51.751Z,21.70
2018-05-21T09:29:58.061Z,21.73
2018-05-21T09:31:04.346Z,21.73
2018-05-21T09:32:10.872Z,21.81
2018-05-21T09:33:18.225Z,21.89
2018-05-21T09:34:24.585Z,21.94
2018-05-21T09:35:30.905Z,21.89
2018-05-21T09:36:37.209Z,21.90
2018-05-21T09:37:44.350Z,21.96
2018-05-21T09:38:54.640Z,22.03
2018-05-21T09:40:01.096Z,21.96
2018-05-21T09:41:07.466Z,21.92
2018-05-21T09:42:13.813Z,21.98
2018-05-21T09:43:20.684Z,22.01
2018-05-21T09:44:27.026Z,21.97
2018-05-21T09:45:33.129Z,21.93
2018-05-21T09:46:39.449Z,21.88
2018-05-21T09:47:45.725Z,21.91
2018-05-21T09:48:52.036Z,21.96
2018-05-21T09:49:58.039Z,21.98
2018-05-21T09:51:04.365Z,22.00
2018-05-21T09:52:10.706Z,22.02
2018-05-21T09:53:17.032Z,22.01
2018-05-21T09:54:23.641Z,21.97
2018-05-21T09:55:30.733Z,21.87
2018-05-21T09:56:37.446Z,21.85
2018-05-21T09:57:43.681Z,21.93
2018-05-21T09:58:51.244Z,21.92
2018-05-21T10:00:04.574Z,21.95
2018-05-21T10:01:12.781Z,21.92
2018-05-21T10:02:20.356Z,21.93
2018-05-21T10:03:27.213Z,22.01
2018-05-21T10:04:34.125Z,22.05
2018-05-21T10:05:40.488Z,22.04
2018-05-21T10:06:46.766Z,22.04
2018-05-21T10:07:53.073Z,22.09
2018-05-21T10:08:59.396Z,22.19
2018-05-21T10:10:05.576Z,22.16
2018-05-21T10:11:11.928Z,22.12
2018-05-21T10:12:18.229Z,22.11
2018-05-21T10:13:24.562Z,22.07
2018-05-21T10:14:30.860Z,22.09
2018-05-21T10:15:38.421Z,22.14
2018-05-21T10:16:44.624Z,22.20
2018-05-21T10:17:50.938Z,22.24
2018-05-21T10:18:57.201Z,22.33
2018-05-21T10:20:03.512Z,22.46
2018-05-21T10:21:10.104Z,22.59
2018-05-21T10:22:16.646Z,22.63
2018-05-21T10:23:22.865Z,22.65
2018-05-21T10:24:29.171Z,22.64
2018-05-21T10:25:36.323Z,22.62
2018-05-21T10:26:43.076Z,22.44
2018-05-21T10:27:49.374Z,22.38
2018-05-21T10:28:55.672Z,22.30
2018-05-21T10:30:01.957Z,22.31
2018-05-21T10:31:08.246Z,22.41
2018-05-21T10:32:14.510Z,22.49
2018-05-21T10:33:20.778Z,22.56
2018-05-21T10:34:27.102Z,22.65
2018-05-21T10:35:33.431Z,22.66
2018-05-21T10:36:39.767Z,22.66
2018-05-21T10:37:46.069Z,22.58
2018-05-21T10:38:52.556Z,22.56
2018-05-21T10:39:58.857Z,22.49
2018-05-21T10:41:04.964Z,22.32
2018-05-21T10:42:12.138Z,22.27
2018-05-21T10:43:18.437Z,22.35
2018-05-21T10:44:25.645Z,22.44
2018-05-21T10:45:32.017Z,22.44
2018-05-21T10:46:38.545Z,22.44
2018-05-21T10:47:45.050Z,22.42
2018-05-21T10:48:51.309Z,22.53
2018-05-21T10:49:57.621Z,22.59
2018-05-21T10:51:03.935Z,22.63
2018-05-21T10:52:10.271Z,22.56
2018-05-21T10:53:16.604Z,22.52
2018-05-21T10:54:22.887Z,22.49
2018-05-21T10:55:29.467Z,22.58
2018-05-21T10:56:35.851Z,22.49
2018-05-21T10:57:44.655Z,22.45
2018-05-21T10:58:51.165Z,22.50
2018-05-21T10:59:57.398Z,22.66
2018-05-21T11:01:03.713Z,22.77
2018-05-21T11:02:10.130Z,22.76
2018-05-21T11:03:20.384Z,22.82
2018-05-21T11:04:26.637Z,22.91
2018-05-21T11:05:32.968Z,22.84
2018-05-21T11:06:40.076Z,22.77
2018-05-21T11:07:46.416Z,22.81
2018-05-21T11:08:52.802Z,22.78
2018-05-21T11:09:59.346Z,22.78
2018-05-21T11:11:05.679Z,22.80
2018-05-21T11:12:11.995Z,22.81
2018-05-21T11:13:18.477Z,22.89
2018-05-21T11:14:24.853Z,22.91
2018-05-21T11:15:31.830Z,23.01
2018-05-21T11:16:38.162Z,23.01
2018-05-21T11:17:47.022Z,22.99
2018-05-21T11:18:54.192Z,22.91
2018-05-21T11:20:00.708Z,22.90
2018-05-21T11:21:07.933Z,22.96
2018-05-21T11:22:14.165Z,22.95
2018-05-21T11:23:20.488Z,22.97
2018-05-21T11:24:26.697Z,22.99
2018-05-21T11:25:33.120Z,22.98
2018-05-21T11:26:39.490Z,22.90
2018-05-21T11:27:45.761Z,22.90
2018-05-21T11:28:52.186Z,22.96
2018-05-21T11:29:58.473Z,23.03
2018-05-21T11:31:04.778Z,23.12
2018-05-21T11:32:11.085Z,23.07
2018-05-21T11:33:17.137Z,23.09
2018-05-21T11:34:23.414Z,23.09
2018-05-21T11:35:29.710Z,23.08
2018-05-21T11:36:36.066Z,23.10
2018-05-21T11:37:42.333Z,23.08
2018-05-21T11:38:49.502Z,23.09
2018-05-21T11:39:56.305Z,22.75
2018-05-21T11:41:02.613Z,22.89
2018-05-21T11:42:08.750Z,23.02
2018-05-21T11:43:14.962Z,23.11
2018-05-21T11:45:41.704Z,22.94
2018-05-21T11:46:48.018Z,22.99
2018-05-21T11:47:54.288Z,23.18
2018-05-21T11:49:00.522Z,23.29
2018-05-21T11:50:06.551Z,23.27
2018-05-21T11:51:12.938Z,23.09
2018-05-21T11:52:19.264Z,23.09
2018-05-21T11:53:25.569Z,23.12
2018-05-21T11:54:32.413Z,23.12
2018-05-21T11:55:39.687Z,23.12
2018-05-21T11:56:45.971Z,23.26
2018-05-21T11:57:52.276Z,23.30
2018-05-21T11:58:58.585Z,23.30
2018-05-21T12:00:04.110Z,23.30
2018-05-21T12:01:10.395Z,23.34
2018-05-21T12:02:16.313Z,23.34
2018-05-21T12:03:22.766Z,23.30
2018-05-21T12:04:29.889Z,23.32
2018-05-21T12:05:37.926Z,23.35
2018-05-21T12:06:46.532Z,23.28
2018-05-21T12:07:52.825Z,23.27
2018-05-21T12:08:59.158Z,23.31
2018-05-21T12:10:05.138Z,23.29
2018-05-21T12:11:11.441Z,23.25
2018-05-21T12:12:17.799Z,23.23
2018-05-21T12:13:24.022Z,23.30
2018-05-21T12:14:30.299Z,23.35
2018-05-21T12:15:36.608Z,23.46
2018-05-21T12:16:44.706Z,23.53
2018-05-21T12:17:50.970Z,23.53
2018-05-21T12:18:57.297Z,23.55
2018-05-21T12:20:03.260Z,23.45
2018-05-21T12:21:09.500Z,23.53
2018-05-21T12:22:15.805Z,23.55
2018-05-21T12:23:22.641Z,23.52
2018-05-21T12:24:28.643Z,23.52
2018-05-21T12:25:35.109Z,23.45
2018-05-21T12:26:42.775Z,23.41
2018-05-21T12:27:51.472Z,23.43
2018-05-21T12:28:57.805Z,23.43
2018-05-21T12:30:03.905Z,23.51
2018-05-21T12:31:10.177Z,23.57
2018-05-21T12:32:16.441Z,23.66
2018-05-21T12:33:22.341Z,23.72
2018-05-21T12:34:29.335Z,23.69
2018-05-21T12:35:35.688Z,23.74
2018-05-21T12:36:41.986Z,23.68
2018-05-21T12:37:48.252Z,23.65
2018-05-21T12:38:54.612Z,23.63
2018-05-21T12:40:00.912Z,23.62
2018-05-21T12:41:07.328Z,23.50
2018-05-21T12:42:14.410Z,23.53
2018-05-21T12:43:20.636Z,23.64
2018-05-21T12:44:26.965Z,23.70
2018-05-21T12:45:33.449Z,23.59
2018-05-21T12:46:39.705Z,23.58
2018-05-21T12:47:48.216Z,23.64
2018-05-21T12:48:59.549Z,23.71
2018-05-21T12:50:05.769Z,23.67
2018-05-21T12:51:12.104Z,23.71
2018-05-21T12:52:18.294Z,23.63
2018-05-21T12:53:24.604Z,23.56
2018-05-21T12:54:30.933Z,23.56
2018-05-21T12:55:37.133Z,23.66
2018-05-21T12:56:43.329Z,23.79
2018-05-21T12:57:50.470Z,23.80
2018-05-21T12:58:56.927Z,23.76
2018-05-21T13:00:03.654Z,23.62
2018-05-21T13:01:10.013Z,23.72
2018-05-21T13:02:16.575Z,23.75
2018-05-21T13:03:22.828Z,23.82
2018-05-21T13:04:29.224Z,23.87
2018-05-21T13:05:35.556Z,23.84
2018-05-21T13:06:42.322Z,23.84
2018-05-21T13:07:49.109Z,23.87
2018-05-21T13:08:59.098Z,23.84
2018-05-21T13:10:08.042Z,23.75
2018-05-21T13:11:14.432Z,23.74
2018-05-21T13:12:20.749Z,23.82
2018-05-21T13:13:26.681Z,23.85
2018-05-21T13:14:33.060Z,23.91
2018-05-21T13:15:39.345Z,23.93
2018-05-21T13:16:45.692Z,23.82
2018-05-21T13:17:51.949Z,23.79
2018-05-21T13:18:58.747Z,23.69
2018-05-21T13:20:04.941Z,23.76
2018-05-21T13:21:11.753Z,23.83
2018-05-21T13:22:18.777Z,23.80
2018-05-21T13:23:25.618Z,23.78
2018-05-21T13:24:31.914Z,23.83
2018-05-21T13:25:38.289Z,23.96
2018-05-21T13:26:44.517Z,24.04
2018-05-21T13:27:50.552Z,24.14
2018-05-21T13:28:56.860Z,24.21
2018-05-21T13:30:07.824Z,24.25
2018-05-21T13:31:14.035Z,24.24
2018-05-21T13:32:20.269Z,24.31
2018-05-21T13:33:26.599Z,24.41
2018-05-21T13:34:33.317Z,24.43
2018-05-21T13:35:39.820Z,24.40
2018-05-21T13:36:46.160Z,24.42
2018-05-21T13:37:53.109Z,24.23
2018-05-21T13:38:59.925Z,24.21
2018-05-21T13:40:05.934Z,24.21
2018-05-21T13:41:11.885Z,24.28
2018-05-21T13:42:18.206Z,24.27
2018-05-21T13:43:24.229Z,24.21
2018-05-21T13:44:30.531Z,24.15
2018-05-21T13:45:36.833Z,24.16
2018-05-21T13:46:43.508Z,24.19
2018-05-21T13:47:49.766Z,24.19
2018-05-21T13:49:00.884Z,24.11
2018-05-21T13:50:07.221Z,24.14
2018-05-21T13:51:13.544Z,24.15
2018-05-21T13:52:20.655Z,24.17
2018-05-21T13:53:28.272Z,24.23
2018-05-21T13:54:35.084Z,24.14
2018-05-21T13:55:41.348Z,24.06
2018-05-21T13:56:47.590Z,24.06
2018-05-21T13:57:54.051Z,24.05
2018-05-21T13:59:00.450Z,24.06
2018-05-21T14:00:06.570Z,24.08
2018-05-21T14:01:12.873Z,24.09
2018-05-21T14:02:19.177Z,24.10
2018-05-21T14:03:25.214Z,24.16
2018-05-21T14:04:31.612Z,24.24
2018-05-21T14:05:37.970Z,24.27
2018-05-21T14:06:44.465Z,24.29
2018-05-21T14:07:50.757Z,24.32
2018-05-21T14:08:57.726Z,24.25
2018-05-21T14:10:03.951Z,24.24
2018-05-21T14:11:10.202Z,24.25
2018-05-21T14:12:16.537Z,24.24
2018-05-21T14:13:23.414Z,24.24
2018-05-21T14:14:32.021Z,24.27
2018-05-21T14:15:38.354Z,24.25
2018-05-21T14:16:45.733Z,24.29
2018-05-21T14:17:52.052Z,24.38
2018-05-21T14:18:58.303Z,24.46
2018-05-21T14:20:04.204Z,24.50
2018-05-21T14:21:10.528Z,24.54
2018-05-21T14:22:16.764Z,24.49